Aeroporto :
LOGIN :

Iscrizione | Disclaimer

   EN    FR    IT 

 










Sommario :    VFR   VFR Marginale   IFR   IFR Intensivo   IFR Molto Intensivo
Visibilità : 
Base nubi : 
>= 8 km
>= 3000ft
5 / 8 km
1000 / 3000 ft
1500m / 5 km
500 / 1000 ft
800 / 1500m
200 / 500 ft
< 800m
< 200 ft
Simboli :   Temporali  Nebbia  Neve Forte  Precipitazioni Forti  Vento > 20 kt
SIGMETs :   Varie  Temporali  Ghiacco  Turbolenza  Onda orograficha  Ceneri Vulcaniche






- Altitudine del aeroporto : 1504 ft
- Codice IATA : PNA


LEPP - Noain Pamplona

ULTIMO METAR :
  • 090230Z AUTO 00000KT 9999 NCD 02/02 Q1025

METARs OBSOLETI :
  • 090200Z AUTO VRB02KT 9999 NCD 03/03 Q1025
  • 090130Z AUTO 15003KT 9999 NCD 04/04 Q1025
  • 090100Z AUTO VRB01KT 9999 NCD 04/03 Q1025
  • 090030Z AUTO 16002KT 9999 NCD 05/04 Q1025
  • 090000Z AUTO 17003KT 9999 NCD 07/04 Q1025

TAF TAF LEPP
Valido dal 09 a 03 ore il 10 a 03 ore UTC


090200Z 0903/1003 VRB05KT 9999 SCT025 TX09/0914Z TN02/0904Z
BECMG 0908/0910 30010KT
TEMPO 0910/0916 30015G25KT
PROB40
TEMPO 0912/0915 30020G30KT
PROB30
TEMPO 0910/0924 3000 RA BKN014



MetMap, La meteo Aeronautica in un colpo d'occhio ! - Copyright ORBIFLY Dicembre 2007 - Disclaimer

ORBIFLY MET'MAP TEAM :

Programmazione e sviluppo : Alexandra Zaïnal
Concezione : Baudouin d'Aumeries
Aiuto per la programmazione : Marc-Olivier Méhu
Supporto tecnico e logistico : Manuel Goepfert
Aiuto per la traduzione : Arnaldo La Scala

Contatto : metmap@orbifly.com




FONTI E CREDITI :

   NOAA